Time,TemperatureF,DewpointF,PressureIn,WindDirection,WindDirectionDegrees,WindSpeedMPH,WindSpeedGustMPH,Humidity,HourlyPrecipIn,Conditions,Clouds,dailyrainin,SoftwareType,DateUTC
2013-01-05 00:00:00,28.6,14.5,30.24,SSW,202,0.0,0.0,55,0.00,,CLR,0.00,VWS V14.01,2013-01-05 05:00:00,
2013-01-05 00:05:00,28.0,14.4,30.24,SSW,202,0.0,0.0,56,0.00,,CLR,0.00,VWS V14.01,2013-01-05 05:05:00,
2013-01-05 00:10:00,27.7,14.0,30.24,SSW,202,2.7,2.7,56,0.00,,CLR,0.00,VWS V14.01,2013-01-05 05:10:00,
2013-01-05 00:15:00,28.4,15.1,30.24,SSW,202,0.0,2.2,57,0.00,,CLR,0.00,VWS V14.01,2013-01-05 05:15:00,
2013-01-05 00:20:00,28.4,15.1,30.27,SSW,202,0.0,0.0,57,0.00,,CLR,0.00,VWS V14.01,2013-01-05 05:20:00,
2013-01-05 00:25:00,28.0,14.8,30.27,SSW,202,2.2,2.7,57,0.00,,CLR,0.00,VWS V14.01,2013-01-05 05:25:00,
2013-01-05 00:31:00,27.5,14.7,30.27,SSW,202,0.0,0.0,58,0.00,,CLR,0.00,VWS V14.01,2013-01-05 05:31:00,
2013-01-05 00:36:00,27.5,15.1,30.24,SSW,202,0.0,0.0,59,0.00,,CLR,0.00,VWS V14.01,2013-01-05 05:36:00,
2013-01-05 00:41:00,27.3,14.9,30.24,SSW,202,0.0,0.0,59,0.00,,CLR,0.00,VWS V14.01,2013-01-05 05:41:00,
2013-01-05 00:46:00,27.3,14.9,30.24,SSW,202,0.0,0.0,59,0.00,,CLR,0.00,VWS V14.01,2013-01-05 05:46:00,
2013-01-05 00:51:00,27.5,15.4,30.27,SSW,202,2.7,4.0,60,0.00,,CLR,0.00,VWS V14.01,2013-01-05 05:51:00,
2013-01-05 00:56:00,27.1,15.1,30.27,SSW,202,0.0,2.2,60,0.00,,CLR,0.00,VWS V14.01,2013-01-05 05:56:00,
2013-01-05 01:01:00,26.8,15.1,30.27,SSW,202,0.0,2.2,61,0.00,,CLR,0.00,VWS V14.01,2013-01-05 06:01:00,
2013-01-05 01:06:00,26.6,15.7,30.24,SSW,202,0.0,0.0,63,0.00,,CLR,0.00,VWS V14.01,2013-01-05 06:06:00,
2013-01-05 01:11:00,26.2,15.7,30.24,SSW,202,2.2,2.2,64,0.00,,CLR,0.00,VWS V14.01,2013-01-05 06:11:00,
2013-01-05 01:16:00,26.2,16.4,30.24,SSW,202,0.0,0.0,66,0.00,,CLR,0.00,VWS V14.01,2013-01-05 06:16:00,
2013-01-05 01:21:00,26.2,16.8,30.24,SSW,202,0.0,2.7,67,0.00,,CLR,0.00,VWS V14.01,2013-01-05 06:21:00,
2013-01-05 01:26:00,26.1,16.6,30.24,SSW,202,0.0,0.0,67,0.00,,CLR,0.00,VWS V14.01,2013-01-05 06:26:00,
2013-01-05 01:31:00,25.9,16.8,30.24,SSW,202,0.0,2.7,68,0.00,,CLR,0.00,VWS V14.01,2013-01-05 06:31:00,
2013-01-05 01:36:00,25.5,16.8,30.24,SSW,202,2.7,2.7,69,0.00,,CLR,0.00,VWS V14.01,2013-01-05 06:36:00,
2013-01-05 01:41:00,25.7,17.3,30.24,SSW,202,2.2,2.2,70,0.00,,CLR,0.00,VWS V14.01,2013-01-05 06:41:00,
2013-01-05 01:46:00,25.5,17.4,30.24,SSW,202,0.0,0.0,71,0.00,,CLR,0.00,VWS V14.01,2013-01-05 06:46:00,
2013-01-05 01:51:00,25.5,17.4,30.27,SSW,202,0.0,0.0,71,0.00,,CLR,0.00,VWS V14.01,2013-01-05 06:51:00,
2013-01-05 01:56:00,25.5,17.8,30.27,SSW,202,0.0,2.2,72,0.00,,CLR,0.00,VWS V14.01,2013-01-05 06:56:00,
2013-01-05 02:01:00,25.3,17.9,30.27,SSW,202,0.0,0.0,73,0.00,,CLR,0.00,VWS V14.01,2013-01-05 07:01:00,
2013-01-05 02:06:00,25.3,17.9,30.27,SSW,202,2.7,3.1,73,0.00,,CLR,0.00,VWS V14.01,2013-01-05 07:06:00,
2013-01-05 02:11:00,25.5,18.4,30.27,SSW,202,0.0,0.0,74,0.00,,CLR,0.00,VWS V14.01,2013-01-05 07:11:00,
2013-01-05 02:16:00,25.0,17.9,30.30,SSW,202,0.0,0.0,74,0.00,,CLR,0.00,VWS V14.01,2013-01-05 07:16:00,
2013-01-05 02:21:00,24.6,18.1,30.30,SSW,202,0.0,0.0,76,0.00,,CLR,0.00,VWS V14.01,2013-01-05 07:21:00,
2013-01-05 02:26:00,24.4,18.3,30.30,SSW,202,0.0,0.0,77,0.00,,CLR,0.00,VWS V14.01,2013-01-05 07:26:00,
2013-01-05 02:31:00,23.9,18.0,30.27,SSW,202,2.7,2.7,78,0.00,,CLR,0.00,VWS V14.01,2013-01-05 07:31:00,
2013-01-05 02:36:00,24.4,18.9,30.27,SSW,202,2.7,3.1,79,0.00,,CLR,0.00,VWS V14.01,2013-01-05 07:36:00,
2013-01-05 02:41:00,24.4,19.2,30.27,SSW,202,0.0,0.0,80,0.00,,CLR,0.00,VWS V14.01,2013-01-05 07:41:00,
2013-01-05 02:46:00,24.3,19.3,30.27,SSW,202,0.0,0.0,81,0.00,,CLR,0.00,VWS V14.01,2013-01-05 07:46:00,
2013-01-05 02:51:00,24.3,19.3,30.27,SSW,202,2.2,2.2,81,0.00,,CLR,0.00,VWS V14.01,2013-01-05 07:51:00,
2013-01-05 02:56:00,24.3,19.3,30.27,SSW,202,0.0,0.0,81,0.00,,CLR,0.00,VWS V14.01,2013-01-05 07:56:00,
2013-01-05 03:01:00,24.8,19.8,30.27,SSW,202,0.0,0.0,81,0.00,,CLR,0.00,VWS V14.01,2013-01-05 08:01:00,
2013-01-05 03:06:00,24.8,19.5,30.27,SSW,202,3.1,4.5,80,0.00,,CLR,0.00,VWS V14.01,2013-01-05 08:06:00,
2013-01-05 03:11:00,24.3,19.0,30.27,SSW,202,0.0,0.0,80,0.00,,CLR,0.00,VWS V14.01,2013-01-05 08:11:00,
2013-01-05 03:16:00,24.4,19.2,30.27,SSW,202,0.0,0.0,80,0.00,,CLR,0.00,VWS V14.01,2013-01-05 08:16:00,
2013-01-05 03:21:00,24.1,18.8,30.24,SSW,202,0.0,0.0,80,0.00,,CLR,0.00,VWS V14.01,2013-01-05 08:21:00,
2013-01-05 03:26:00,23.7,18.8,30.24,SSW,202,0.0,0.0,81,0.00,,CLR,0.00,VWS V14.01,2013-01-05 08:26:00,
2013-01-05 03:31:00,23.4,18.4,30.24,WSW,248,0.0,0.0,81,0.00,,CLR,0.00,VWS V14.01,2013-01-05 08:31:00,
2013-01-05 03:36:00,23.5,18.9,30.27,WSW,248,0.0,0.0,82,0.00,,CLR,0.00,VWS V14.01,2013-01-05 08:36:00,
2013-01-05 03:41:00,23.4,19.0,30.27,SW,225,2.2,4.0,83,0.00,,CLR,0.00,VWS V14.01,2013-01-05 08:41:00,
2013-01-05 03:46:00,23.2,18.8,30.24,SW,225,0.0,0.0,83,0.00,,CLR,0.00,VWS V14.01,2013-01-05 08:46:00,
2013-01-05 03:51:00,23.5,19.4,30.24,SW,225,0.0,0.0,84,0.00,,CLR,0.00,VWS V14.01,2013-01-05 08:51:00,
2013-01-05 03:56:00,23.9,19.8,30.24,SW,225,3.1,3.1,84,0.00,,CLR,0.00,VWS V14.01,2013-01-05 08:56:00,
2013-01-05 04:01:00,23.9,19.8,30.27,SW,225,2.7,2.7,84,0.00,,CLR,0.00,VWS V14.01,2013-01-05 09:01:00,
2013-01-05 04:06:00,24.3,20.1,30.27,SW,225,2.7,2.7,84,0.00,,CLR,0.00,VWS V14.01,2013-01-05 09:06:00,
2013-01-05 04:11:00,24.4,20.3,30.27,SW,225,2.2,2.2,84,0.00,,CLR,0.00,VWS V14.01,2013-01-05 09:11:00,
2013-01-05 04:16:00,23.7,19.3,30.27,SW,225,0.0,0.0,83,0.00,,CLR,0.00,VWS V14.01,2013-01-05 09:16:00,
2013-01-05 04:21:00,23.5,19.1,30.27,SW,225,2.2,2.2,83,0.00,,CLR,0.00,VWS V14.01,2013-01-05 09:21:00,
2013-01-05 04:26:00,23.9,19.5,30.27,SW,225,0.0,0.0,83,0.00,,CLR,0.00,VWS V14.01,2013-01-05 09:26:00,
2013-01-05 04:31:00,23.4,19.0,30.27,SW,225,0.0,0.0,83,0.00,,CLR,0.00,VWS V14.01,2013-01-05 09:31:00,
2013-01-05 04:36:00,23.4,19.0,30.27,SW,225,0.0,0.0,83,0.00,,CLR,0.00,VWS V14.01,2013-01-05 09:36:00,
2013-01-05 04:41:00,23.0,18.9,30.27,SW,225,0.0,0.0,84,0.00,,CLR,0.00,VWS V14.01,2013-01-05 09:41:00,
2013-01-05 04:46:00,22.8,19.0,30.27,SW,225,0.0,0.0,85,0.00,,CLR,0.00,VWS V14.01,2013-01-05 09:46:00,
2013-01-05 04:51:00,22.8,19.3,30.27,SW,225,3.1,3.1,86,0.00,,CLR,0.00,VWS V14.01,2013-01-05 09:51:00,
2013-01-05 04:56:00,23.4,19.8,30.27,SW,225,2.2,2.2,86,0.00,,CLR,0.00,VWS V14.01,2013-01-05 09:56:00,
2013-01-05 05:01:00,23.2,19.6,30.27,SW,225,0.0,0.0,86,0.00,,CLR,0.00,VWS V14.01,2013-01-05 10:01:00,
2013-01-05 05:06:00,23.2,19.6,30.27,SW,225,0.0,2.2,86,0.00,,CLR,0.00,VWS V14.01,2013-01-05 10:06:00,
2013-01-05 05:11:00,22.8,19.3,30.27,SW,225,0.0,0.0,86,0.00,,CLR,0.00,VWS V14.01,2013-01-05 10:11:00,
2013-01-05 05:16:00,22.8,19.3,30.27,SW,225,0.0,0.0,86,0.00,,CLR,0.00,VWS V14.01,2013-01-05 10:16:00,
2013-01-05 05:22:00,22.6,19.4,30.27,SW,225,0.0,2.2,87,0.00,,CLR,0.00,VWS V14.01,2013-01-05 10:22:00,
2013-01-05 05:27:00,22.5,19.2,30.27,SW,225,0.0,0.0,87,0.00,,CLR,0.00,VWS V14.01,2013-01-05 10:27:00,
2013-01-05 05:32:00,22.5,19.5,30.27,SW,225,0.0,0.0,88,0.00,,CLR,0.00,VWS V14.01,2013-01-05 10:32:00,
2013-01-05 05:37:00,22.5,19.7,30.27,SW,225,0.0,0.0,89,0.00,,CLR,0.00,VWS V14.01,2013-01-05 10:37:00,
2013-01-05 05:42:00,22.3,19.5,30.27,SW,225,0.0,0.0,89,0.00,,CLR,0.00,VWS V14.01,2013-01-05 10:42:00,
2013-01-05 05:47:00,22.3,19.8,30.27,SW,225,0.0,0.0,90,0.00,,CLR,0.00,VWS V14.01,2013-01-05 10:47:00,
2013-01-05 05:52:00,22.5,20.2,30.27,SW,225,2.2,2.2,91,0.00,,CLR,0.00,VWS V14.01,2013-01-05 10:52:00,
2013-01-05 05:57:00,22.3,20.1,30.27,SW,225,0.0,0.0,91,0.00,,CLR,0.00,VWS V14.01,2013-01-05 10:57:00,
2013-01-05 06:02:00,22.1,19.9,30.27,SW,225,0.0,0.0,91,0.00,,CLR,0.00,VWS V14.01,2013-01-05 11:02:00,
2013-01-05 06:07:00,21.9,19.7,30.27,SW,225,0.0,0.0,91,0.00,,CLR,0.00,VWS V14.01,2013-01-05 11:07:00,
2013-01-05 06:12:00,21.9,20.0,30.27,SW,225,0.0,0.0,92,0.00,,CLR,0.00,VWS V14.01,2013-01-05 11:12:00,
2013-01-05 06:17:00,21.9,20.0,30.27,SW,225,2.7,2.7,92,0.00,,CLR,0.00,VWS V14.01,2013-01-05 11:17:00,
2013-01-05 06:22:00,21.7,19.8,30.27,SW,225,0.0,0.0,92,0.00,,CLR,0.00,VWS V14.01,2013-01-05 11:22:00,
2013-01-05 06:27:00,21.9,20.2,30.27,SW,225,0.0,0.0,93,0.00,,CLR,0.00,VWS V14.01,2013-01-05 11:27:00,
2013-01-05 06:32:00,21.9,20.2,30.27,SW,225,0.0,0.0,93,0.00,,CLR,0.00,VWS V14.01,2013-01-05 11:32:00,
2013-01-05 06:37:00,22.1,20.4,30.27,SW,225,0.0,0.0,93,0.00,,CLR,0.00,VWS V14.01,2013-01-05 11:37:00,
2013-01-05 06:42:00,21.7,20.0,30.27,SW,225,0.0,0.0,93,0.00,,CLR,0.00,VWS V14.01,2013-01-05 11:42:00,
2013-01-05 06:47:00,21.6,19.9,30.27,SW,225,0.0,0.0,93,0.00,,CLR,0.00,VWS V14.01,2013-01-05 11:47:00,
2013-01-05 06:52:00,21.2,19.8,30.27,SW,225,0.0,0.0,94,0.00,,CLR,0.00,VWS V14.01,2013-01-05 11:52:00,
2013-01-05 06:58:00,21.2,19.8,30.27,SW,225,0.0,0.0,94,0.00,,CLR,0.00,VWS V14.01,2013-01-05 11:58:00,
2013-01-05 07:03:00,21.6,20.1,30.27,SW,225,0.0,0.0,94,0.00,,CLR,0.00,VWS V14.01,2013-01-05 12:03:00,
2013-01-05 07:08:00,21.9,20.7,30.27,SW,225,2.7,2.7,95,0.00,,CLR,0.00,VWS V14.01,2013-01-05 12:08:00,
2013-01-05 07:13:00,21.7,20.5,30.27,SW,225,0.0,0.0,95,0.00,,CLR,0.00,VWS V14.01,2013-01-05 12:13:00,
2013-01-05 07:18:00,21.7,20.5,30.27,SW,225,0.0,0.0,95,0.00,,CLR,0.00,VWS V14.01,2013-01-05 12:18:00,
2013-01-05 07:23:00,21.4,20.2,30.27,SW,225,0.0,0.0,95,0.00,,CLR,0.00,VWS V14.01,2013-01-05 12:23:00,
2013-01-05 07:28:00,21.9,20.7,30.27,SW,225,0.0,0.0,95,0.00,,CLR,0.00,VWS V14.01,2013-01-05 12:28:00,
2013-01-05 07:33:00,21.9,20.7,30.30,SW,225,0.0,0.0,95,0.00,,CLR,0.00,VWS V14.01,2013-01-05 12:33:00,
2013-01-05 07:38:00,21.6,20.4,30.30,SW,225,0.0,0.0,95,0.00,,CLR,0.00,VWS V14.01,2013-01-05 12:38:00,
2013-01-05 07:43:00,21.4,20.2,30.30,SW,225,0.0,0.0,95,0.00,,CLR,0.00,VWS V14.01,2013-01-05 12:43:00,
2013-01-05 07:48:00,21.2,20.2,30.30,SW,225,0.0,0.0,96,0.00,,CLR,0.00,VWS V14.01,2013-01-05 12:48:00,
2013-01-05 07:53:00,21.2,20.2,30.30,SW,225,0.0,0.0,96,0.00,,CLR,0.00,VWS V14.01,2013-01-05 12:53:00,
2013-01-05 07:58:00,21.4,20.4,30.30,SW,225,0.0,0.0,96,0.00,,CLR,0.00,VWS V14.01,2013-01-05 12:58:00,
2013-01-05 08:03:00,21.7,20.8,30.30,SW,225,0.0,0.0,96,0.00,,CLR,0.00,VWS V14.01,2013-01-05 13:03:00,
2013-01-05 08:08:00,21.7,21.0,30.30,SW,225,0.0,0.0,97,0.00,,CLR,0.00,VWS V14.01,2013-01-05 13:08:00,
2013-01-05 08:13:00,21.9,21.2,30.30,SW,225,0.0,0.0,97,0.00,,CLR,0.00,VWS V14.01,2013-01-05 13:13:00,
2013-01-05 08:18:00,22.3,21.6,30.30,SW,225,0.0,0.0,97,0.00,,CLR,0.00,VWS V14.01,2013-01-05 13:18:00,
2013-01-05 08:23:00,23.0,22.5,30.30,SW,225,0.0,0.0,98,0.00,,CLR,0.00,VWS V14.01,2013-01-05 13:23:00,
2013-01-05 08:28:00,24.4,24.0,30.30,SW,225,0.0,0.0,98,0.00,,CLR,0.00,VWS V14.01,2013-01-05 13:28:00,
2013-01-05 08:33:00,24.8,24.1,30.30,SW,225,2.2,2.7,97,0.00,,CLR,0.00,VWS V14.01,2013-01-05 13:33:00,
2013-01-05 08:38:00,25.2,24.2,30.30,SW,225,0.0,0.0,96,0.00,,CLR,0.00,VWS V14.01,2013-01-05 13:38:00,
2013-01-05 08:43:00,25.9,24.9,30.30,SW,225,0.0,0.0,96,0.00,,CLR,0.00,VWS V14.01,2013-01-05 13:43:00,
2013-01-05 08:49:00,26.4,25.2,30.30,SW,225,0.0,0.0,95,0.00,,CLR,0.00,VWS V14.01,2013-01-05 13:49:00,
2013-01-05 08:54:00,27.1,25.6,30.30,SW,225,0.0,0.0,94,0.00,,CLR,0.00,VWS V14.01,2013-01-05 13:54:00,
2013-01-05 08:59:00,27.9,26.4,30.30,SW,225,0.0,0.0,94,0.00,,CLR,0.00,VWS V14.01,2013-01-05 13:59:00,
2013-01-05 09:04:00,28.9,27.2,30.33,SW,225,0.0,0.0,93,0.00,,CLR,0.00,VWS V14.01,2013-01-05 14:04:00,
2013-01-05 09:09:00,29.7,27.6,30.33,SW,225,0.0,0.0,92,0.00,,CLR,0.00,VWS V14.01,2013-01-05 14:09:00,
2013-01-05 09:14:00,30.4,27.5,30.33,SW,225,0.0,0.0,89,0.00,,CLR,0.00,VWS V14.01,2013-01-05 14:14:00,
2013-01-05 09:19:00,31.1,27.4,30.30,SW,225,0.0,0.0,86,0.00,,CLR,0.00,VWS V14.01,2013-01-05 14:19:00,
2013-01-05 09:24:00,32.2,27.9,30.30,SW,225,0.0,0.0,84,0.00,,CLR,0.00,VWS V14.01,2013-01-05 14:24:00,
2013-01-05 09:29:00,33.3,27.1,30.30,SW,225,0.0,0.0,78,0.00,,CLR,0.00,VWS V14.01,2013-01-05 14:29:00,
2013-01-05 09:34:00,34.0,25.6,30.33,SW,225,0.0,0.0,71,0.00,,CLR,0.00,VWS V14.01,2013-01-05 14:34:00,
2013-01-05 09:39:00,35.4,24.5,30.33,SW,225,0.0,2.2,64,0.00,,CLR,0.00,VWS V14.01,2013-01-05 14:39:00,
2013-01-05 09:44:00,36.9,23.5,30.33,SW,225,0.0,2.2,58,0.00,,CLR,0.00,VWS V14.01,2013-01-05 14:44:00,
2013-01-05 09:49:00,37.9,21.9,30.30,SW,225,3.1,3.6,52,0.00,,CLR,0.00,VWS V14.01,2013-01-05 14:49:00,
2013-01-05 09:54:00,37.4,19.5,30.30,SW,225,2.2,2.7,48,0.00,,CLR,0.00,VWS V14.01,2013-01-05 14:54:00,
2013-01-05 09:59:00,38.1,20.2,30.30,SW,225,0.0,2.7,48,0.00,,CLR,0.00,VWS V14.01,2013-01-05 14:59:00,
2013-01-05 10:04:00,38.8,19.8,30.30,SW,225,0.0,0.0,46,0.00,,CLR,0.00,VWS V14.01,2013-01-05 15:04:00,
2013-01-05 10:09:00,39.0,19.5,30.30,SW,225,0.0,2.2,45,0.00,,CLR,0.00,VWS V14.01,2013-01-05 15:09:00,
2013-01-05 10:14:00,39.6,19.5,30.30,SW,225,2.7,2.7,44,0.00,,CLR,0.00,VWS V14.01,2013-01-05 15:14:00,
2013-01-05 10:19:00,40.1,18.3,30.33,SW,225,0.0,0.0,41,0.00,,CLR,0.00,VWS V14.01,2013-01-05 15:19:00,
2013-01-05 10:24:00,40.3,17.9,30.33,SW,225,0.0,0.0,40,0.00,,CLR,0.00,VWS V14.01,2013-01-05 15:24:00,
2013-01-05 10:29:00,41.5,18.4,30.33,SW,225,2.2,2.2,39,0.00,,CLR,0.00,VWS V14.01,2013-01-05 15:29:00,
2013-01-05 10:34:00,42.8,18.4,30.30,SW,225,2.2,2.7,37,0.00,,CLR,0.00,VWS V14.01,2013-01-05 15:34:00,
2013-01-05 10:39:00,43.0,17.9,30.30,SW,225,2.2,2.2,36,0.00,,CLR,0.00,VWS V14.01,2013-01-05 15:39:00,
2013-01-05 10:44:00,45.3,18.6,30.30,SW,225,2.2,2.7,34,0.00,,CLR,0.00,VWS V14.01,2013-01-05 15:44:00,
2013-01-05 10:49:00,45.5,19.5,30.30,SW,225,2.7,2.7,35,0.00,,CLR,0.00,VWS V14.01,2013-01-05 15:49:00,
2013-01-05 10:54:00,45.5,18.1,30.30,SW,225,2.7,2.7,33,0.00,,CLR,0.00,VWS V14.01,2013-01-05 15:54:00,
2013-01-05 10:59:00,46.8,19.2,30.30,SW,225,0.0,2.7,33,0.00,,CLR,0.00,VWS V14.01,2013-01-05 15:59:00,
2013-01-05 11:04:00,45.9,18.4,30.30,SSE,158,3.6,4.0,33,0.00,,CLR,0.00,VWS V14.01,2013-01-05 16:04:00,
2013-01-05 11:09:00,45.7,18.2,30.30,SSE,158,2.7,2.7,33,0.00,,CLR,0.00,VWS V14.01,2013-01-05 16:09:00,
2013-01-05 11:14:00,46.2,18.7,30.30,SSE,158,2.7,2.7,33,0.00,,CLR,0.00,VWS V14.01,2013-01-05 16:14:00,
2013-01-05 11:19:00,45.9,18.4,30.30,SSE,158,2.7,3.1,33,0.00,,CLR,0.00,VWS V14.01,2013-01-05 16:19:00,
2013-01-05 11:24:00,46.2,18.7,30.30,SSE,158,3.1,3.1,33,0.00,,CLR,0.00,VWS V14.01,2013-01-05 16:24:00,
2013-01-05 11:29:00,47.3,19.0,30.30,SSE,158,2.2,2.2,32,0.00,,CLR,0.00,VWS V14.01,2013-01-05 16:29:00,
2013-01-05 11:34:00,46.4,18.2,30.30,South,180,3.6,3.6,32,0.00,,CLR,0.00,VWS V14.01,2013-01-05 16:34:00,
2013-01-05 11:39:00,45.9,17.7,30.30,SSW,202,2.7,2.7,32,0.00,,CLR,0.00,VWS V14.01,2013-01-05 16:39:00,
2013-01-05 11:44:00,46.8,18.5,30.30,SW,225,2.7,3.6,32,0.00,,CLR,0.00,VWS V14.01,2013-01-05 16:44:00,
2013-01-05 11:49:00,47.7,17.0,30.27,South,180,2.7,3.1,29,0.00,,CLR,0.00,VWS V14.01,2013-01-05 16:49:00,
2013-01-05 11:54:00,48.2,17.5,30.27,SSW,202,0.0,3.6,29,0.00,,CLR,0.00,VWS V14.01,2013-01-05 16:54:00,
2013-01-05 12:00:00,48.0,17.3,30.27,SSE,158,4.9,4.9,29,0.00,,CLR,0.00,VWS V14.01,2013-01-05 17:00:00,
2013-01-05 12:05:00,47.7,17.0,30.27,SSE,158,2.2,4.9,29,0.00,,CLR,0.00,VWS V14.01,2013-01-05 17:05:00,
2013-01-05 12:10:00,48.2,17.5,30.27,SSE,158,0.0,2.7,29,0.00,,CLR,0.00,VWS V14.01,2013-01-05 17:10:00,
2013-01-05 12:15:00,49.3,18.4,30.27,SSE,158,2.2,3.1,29,0.00,,CLR,0.00,VWS V14.01,2013-01-05 17:15:00,
2013-01-05 12:20:00,50.0,19.0,30.27,SSW,202,5.8,5.8,29,0.00,,CLR,0.00,VWS V14.01,2013-01-05 17:20:00,
2013-01-05 12:25:00,48.6,17.8,30.27,SSE,158,4.5,4.5,29,0.00,,CLR,0.00,VWS V14.01,2013-01-05 17:25:00,
2013-01-05 12:30:00,48.2,17.5,30.27,SSE,158,0.0,2.2,29,0.00,,CLR,0.00,VWS V14.01,2013-01-05 17:30:00,
2013-01-05 12:35:00,48.2,17.5,30.24,SSW,202,2.2,2.2,29,0.00,,CLR,0.00,VWS V14.01,2013-01-05 17:35:00,
2013-01-05 12:40:00,48.2,17.5,30.24,SSE,158,3.1,3.1,29,0.00,,CLR,0.00,VWS V14.01,2013-01-05 17:40:00,
2013-01-05 12:45:00,49.3,18.4,30.24,South,180,4.9,5.8,29,0.00,,CLR,0.00,VWS V14.01,2013-01-05 17:45:00,
2013-01-05 12:50:00,48.7,17.9,30.24,SSE,158,4.0,4.9,29,0.00,,CLR,0.00,VWS V14.01,2013-01-05 17:50:00,
2013-01-05 12:55:00,48.6,17.8,30.24,SSW,202,0.0,0.0,29,0.00,,CLR,0.00,VWS V14.01,2013-01-05 17:55:00,
2013-01-05 13:00:00,49.8,18.9,30.24,SSE,158,4.9,4.9,29,0.00,,CLR,0.00,VWS V14.01,2013-01-05 18:00:00,
2013-01-05 13:05:00,50.2,19.2,30.24,SSW,202,3.6,3.6,29,0.00,,CLR,0.00,VWS V14.01,2013-01-05 18:05:00,
2013-01-05 13:10:00,50.2,19.2,30.24,SSE,158,4.5,6.3,29,0.00,,CLR,0.00,VWS V14.01,2013-01-05 18:10:00,
2013-01-05 13:15:00,49.8,18.9,30.24,SSW,202,2.7,2.7,29,0.00,,CLR,0.00,VWS V14.01,2013-01-05 18:15:00,
2013-01-05 13:20:00,50.5,19.5,30.21,SSW,202,0.0,0.0,29,0.00,,CLR,0.00,VWS V14.01,2013-01-05 18:20:00,
2013-01-05 13:25:00,50.5,19.5,30.21,SSW,202,3.6,3.6,29,0.00,,CLR,0.00,VWS V14.01,2013-01-05 18:25:00,
2013-01-05 13:30:00,50.2,19.2,30.21,WSW,248,4.0,4.0,29,0.00,,CLR,0.00,VWS V14.01,2013-01-05 18:30:00,
2013-01-05 13:35:00,50.4,19.3,30.21,South,180,4.0,5.8,29,0.00,,CLR,0.00,VWS V14.01,2013-01-05 18:35:00,
2013-01-05 13:40:00,51.1,20.0,30.21,SSE,158,4.9,5.4,29,0.00,,CLR,0.00,VWS V14.01,2013-01-05 18:40:00,
2013-01-05 13:45:00,50.9,19.8,30.21,SSE,158,3.1,3.1,29,0.00,,CLR,0.00,VWS V14.01,2013-01-05 18:45:00,
2013-01-05 13:50:00,50.5,19.5,30.21,South,180,0.0,2.2,29,0.00,,CLR,0.00,VWS V14.01,2013-01-05 18:50:00,
2013-01-05 13:55:00,51.6,20.4,30.21,SSE,158,3.1,3.1,29,0.00,,CLR,0.00,VWS V14.01,2013-01-05 18:55:00,
2013-01-05 14:00:00,52.2,18.3,30.21,SSE,158,2.7,2.7,26,0.00,,CLR,0.00,VWS V14.01,2013-01-05 19:00:00,
2013-01-05 14:05:00,51.8,18.0,30.21,SSW,202,2.7,3.1,26,0.00,,CLR,0.00,VWS V14.01,2013-01-05 19:05:00,
2013-01-05 14:10:00,53.6,18.6,30.21,SSW,202,0.0,2.7,25,0.00,,CLR,0.00,VWS V14.01,2013-01-05 19:10:00,
2013-01-05 14:15:00,53.6,18.6,30.21,SSW,202,0.0,0.0,25,0.00,,CLR,0.00,VWS V14.01,2013-01-05 19:15:00,
2013-01-05 14:20:00,52.9,19.0,30.21,SE,135,5.8,5.8,26,0.00,,CLR,0.00,VWS V14.01,2013-01-05 19:20:00,
2013-01-05 14:25:00,52.0,18.2,30.21,SSE,158,2.2,3.6,26,0.00,,CLR,0.00,VWS V14.01,2013-01-05 19:25:00,
2013-01-05 14:31:00,52.3,18.5,30.21,SSE,158,4.0,4.0,26,0.00,,CLR,0.00,VWS V14.01,2013-01-05 19:31:00,
2013-01-05 14:36:00,51.8,18.0,30.21,SSE,158,0.0,2.2,26,0.00,,CLR,0.00,VWS V14.01,2013-01-05 19:36:00,
2013-01-05 14:41:00,51.4,17.7,30.21,SSE,158,4.0,5.4,26,0.00,,CLR,0.00,VWS V14.01,2013-01-05 19:41:00,
2013-01-05 14:46:00,50.5,17.0,30.21,SSE,158,3.6,3.6,26,0.00,,CLR,0.00,VWS V14.01,2013-01-05 19:46:00,
2013-01-05 14:51:00,51.3,17.6,30.21,SSE,158,0.0,0.0,26,0.00,,CLR,0.00,VWS V14.01,2013-01-05 19:51:00,
2013-01-05 14:56:00,52.2,18.3,30.21,SSE,158,3.1,3.1,26,0.00,,CLR,0.00,VWS V14.01,2013-01-05 19:56:00,
2013-01-05 15:01:00,51.3,17.6,30.21,South,180,3.1,4.0,26,0.00,,CLR,0.00,VWS V14.01,2013-01-05 20:01:00,
2013-01-05 15:06:00,50.2,16.6,30.21,SSE,158,5.4,5.4,26,0.00,,CLR,0.00,VWS V14.01,2013-01-05 20:06:00,
2013-01-05 15:11:00,50.2,16.6,30.21,SSE,158,2.7,3.6,26,0.00,,CLR,0.00,VWS V14.01,2013-01-05 20:11:00,
2013-01-05 15:16:00,49.8,16.3,30.21,SSE,158,3.6,4.0,26,0.00,,CLR,0.00,VWS V14.01,2013-01-05 20:16:00,
2013-01-05 15:21:00,49.5,16.0,30.21,South,180,4.0,4.0,26,0.00,,CLR,0.00,VWS V14.01,2013-01-05 20:21:00,
2013-01-05 15:26:00,49.3,15.9,30.21,SSE,158,4.0,5.4,26,0.00,,CLR,0.00,VWS V14.01,2013-01-05 20:26:00,
2013-01-05 15:31:00,49.1,15.7,30.21,SSE,158,4.0,4.0,26,0.00,,CLR,0.00,VWS V14.01,2013-01-05 20:31:00,
2013-01-05 15:36:00,49.1,15.7,30.21,SSE,158,3.1,3.6,26,0.00,,CLR,0.00,VWS V14.01,2013-01-05 20:36:00,
2013-01-05 15:41:00,48.7,17.9,30.21,SSE,158,2.2,3.1,29,0.00,,CLR,0.00,VWS V14.01,2013-01-05 20:41:00,
2013-01-05 15:46:00,48.4,17.6,30.21,South,180,4.0,5.8,29,0.00,,CLR,0.00,VWS V14.01,2013-01-05 20:46:00,
2013-01-05 15:51:00,48.0,17.3,30.21,SSE,158,3.1,3.6,29,0.00,,CLR,0.00,VWS V14.01,2013-01-05 20:51:00,
2013-01-05 15:56:00,47.8,17.1,30.21,South,180,4.9,5.8,29,0.00,,CLR,0.00,VWS V14.01,2013-01-05 20:56:00,
2013-01-05 16:01:00,47.7,19.3,30.21,SSE,158,4.0,4.9,32,0.00,,CLR,0.00,VWS V14.01,2013-01-05 21:01:00,
2013-01-05 16:06:00,47.5,19.1,30.21,SSE,158,2.7,3.6,32,0.00,,CLR,0.00,VWS V14.01,2013-01-05 21:06:00,
2013-01-05 16:12:00,47.5,19.1,30.21,SSE,158,3.6,3.6,32,0.00,,CLR,0.00,VWS V14.01,2013-01-05 21:12:00,
2013-01-05 16:17:00,47.3,19.0,30.18,SSE,158,4.0,4.0,32,0.00,,CLR,0.00,VWS V14.01,2013-01-05 21:17:00,
2013-01-05 16:22:00,46.9,18.6,30.18,SSE,158,3.1,3.1,32,0.00,,CLR,0.00,VWS V14.01,2013-01-05 21:22:00,
2013-01-05 16:27:00,46.8,18.5,30.18,SSE,158,4.0,4.9,32,0.00,,CLR,0.00,VWS V14.01,2013-01-05 21:27:00,
2013-01-05 16:32:00,46.6,18.3,30.21,SSE,158,4.5,4.5,32,0.00,,CLR,0.00,VWS V14.01,2013-01-05 21:32:00,
2013-01-05 16:37:00,46.4,18.2,30.21,SE,135,5.4,5.4,32,0.00,,CLR,0.00,VWS V14.01,2013-01-05 21:37:00,
2013-01-05 16:42:00,46.2,18.7,30.21,SSE,158,3.1,3.1,33,0.00,,CLR,0.00,VWS V14.01,2013-01-05 21:42:00,
2013-01-05 16:47:00,46.0,18.6,30.18,SSE,158,5.4,5.4,33,0.00,,CLR,0.00,VWS V14.01,2013-01-05 21:47:00,
2013-01-05 16:52:00,45.9,18.4,30.18,SSE,158,4.0,4.0,33,0.00,,CLR,0.00,VWS V14.01,2013-01-05 21:52:00,
2013-01-05 16:57:00,45.5,18.1,30.18,SSW,202,0.0,2.7,33,0.00,,CLR,0.00,VWS V14.01,2013-01-05 21:57:00,
2013-01-05 17:02:00,45.3,17.9,30.21,SSW,202,2.7,2.7,33,0.00,,CLR,0.00,VWS V14.01,2013-01-05 22:02:00,
2013-01-05 17:07:00,45.1,18.5,30.21,SSW,202,2.2,2.7,34,0.00,,CLR,0.00,VWS V14.01,2013-01-05 22:07:00,
2013-01-05 17:12:00,44.8,18.1,30.21,South,180,2.2,3.6,34,0.00,,CLR,0.00,VWS V14.01,2013-01-05 22:12:00,
2013-01-05 17:18:00,44.6,18.0,30.21,SSE,158,3.1,5.4,34,0.00,,CLR,0.00,VWS V14.01,2013-01-05 22:18:00,
2013-01-05 17:23:00,44.6,18.0,30.21,SSE,158,2.7,3.1,34,0.00,,CLR,0.00,VWS V14.01,2013-01-05 22:23:00,
2013-01-05 17:28:00,44.1,18.2,30.21,SSE,158,3.1,3.1,35,0.00,,CLR,0.00,VWS V14.01,2013-01-05 22:28:00,
2013-01-05 17:33:00,43.9,18.7,30.21,SSE,158,3.1,3.1,36,0.00,,CLR,0.00,VWS V14.01,2013-01-05 22:33:00,
2013-01-05 17:38:00,43.7,18.5,30.21,SSE,158,3.6,4.0,36,0.00,,CLR,0.00,VWS V14.01,2013-01-05 22:38:00,
2013-01-05 17:43:00,43.7,19.1,30.21,ESE,112,0.0,2.7,37,0.00,,CLR,0.00,VWS V14.01,2013-01-05 22:43:00,
2013-01-05 17:48:00,43.5,19.0,30.21,SSE,158,0.0,2.2,37,0.00,,CLR,0.00,VWS V14.01,2013-01-05 22:48:00,
2013-01-05 17:53:00,43.3,19.5,30.21,SSE,158,2.7,2.7,38,0.00,,CLR,0.00,VWS V14.01,2013-01-05 22:53:00,
2013-01-05 17:58:00,43.0,19.1,30.21,SSE,158,0.0,0.0,38,0.00,,CLR,0.00,VWS V14.01,2013-01-05 22:58:00,
2013-01-05 18:03:00,42.8,20.2,30.21,SSE,158,0.0,0.0,40,0.00,,CLR,0.00,VWS V14.01,2013-01-05 23:03:00,
2013-01-05 18:08:00,42.8,19.6,30.21,SSE,158,0.0,0.0,39,0.00,,CLR,0.00,VWS V14.01,2013-01-05 23:08:00,
2013-01-05 18:13:00,42.6,20.0,30.21,SSE,158,2.2,2.2,40,0.00,,CLR,0.00,VWS V14.01,2013-01-05 23:13:00,
2013-01-05 18:18:00,42.8,19.0,30.21,SSE,158,0.0,0.0,38,0.00,,CLR,0.00,VWS V14.01,2013-01-05 23:18:00,
2013-01-05 18:23:00,42.4,19.8,30.21,SSE,158,0.0,0.0,40,0.00,,CLR,0.00,VWS V14.01,2013-01-05 23:23:00,
2013-01-05 18:28:00,42.3,19.7,30.21,SSE,158,0.0,0.0,40,0.00,,CLR,0.00,VWS V14.01,2013-01-05 23:28:00,
2013-01-05 18:33:00,42.4,19.8,30.21,SSE,158,2.2,2.7,40,0.00,,CLR,0.00,VWS V14.01,2013-01-05 23:33:00,
2013-01-05 18:38:00,42.4,19.8,30.21,SSE,158,0.0,0.0,40,0.00,,CLR,0.00,VWS V14.01,2013-01-05 23:38:00,
2013-01-05 18:43:00,42.3,19.7,30.21,SSE,158,0.0,0.0,40,0.00,,SCT110,0.00,VWS V14.01,2013-01-05 23:43:00,
2013-01-05 18:48:00,42.4,19.2,30.21,SSE,158,0.0,2.2,39,0.00,,SCT110,0.00,VWS V14.01,2013-01-05 23:48:00,
2013-01-05 18:53:00,42.4,19.2,30.21,SSE,158,0.0,2.2,39,0.00,,SCT110,0.00,VWS V14.01,2013-01-05 23:53:00,
2013-01-05 18:58:00,42.3,19.1,30.21,SSE,158,0.0,0.0,39,0.00,,SCT110,0.00,VWS V14.01,2013-01-05 23:58:00,
2013-01-05 19:03:00,42.3,19.1,30.21,SSE,158,0.0,0.0,39,0.00,,OVC110,0.00,VWS V14.01,2013-01-06 00:03:00,
2013-01-05 19:08:00,42.3,19.1,30.21,SSE,158,0.0,0.0,39,0.00,,OVC110,0.00,VWS V14.01,2013-01-06 00:08:00,
2013-01-05 19:13:00,42.3,19.7,30.21,SSE,158,2.2,2.2,40,0.00,,OVC110,0.00,VWS V14.01,2013-01-06 00:13:00,
2013-01-05 19:18:00,42.1,19.5,30.21,SSE,158,0.0,0.0,40,0.00,,OVC110,0.00,VWS V14.01,2013-01-06 00:18:00,
2013-01-05 19:23:00,42.1,20.1,30.21,SSE,158,0.0,0.0,41,0.00,,OVC100,0.00,VWS V14.01,2013-01-06 00:23:00,
2013-01-05 19:28:00,41.9,20.5,30.21,SSE,158,0.0,0.0,42,0.00,,OVC100,0.00,VWS V14.01,2013-01-06 00:28:00,
2013-01-05 19:33:00,41.7,20.9,30.21,SSE,158,0.0,0.0,43,0.00,,OVC100,0.00,VWS V14.01,2013-01-06 00:33:00,
2013-01-05 19:38:00,41.5,21.3,30.21,SSE,158,0.0,0.0,44,0.00,,OVC100,0.00,VWS V14.01,2013-01-06 00:38:00,
2013-01-05 19:43:00,41.2,20.9,30.21,SSE,158,0.0,0.0,44,0.00,,-RA,0.00,VWS V14.01,2013-01-06 00:43:00,
2013-01-05 19:48:00,40.8,22.2,30.24,SSE,158,0.0,0.0,47,0.00,,-RA,0.00,VWS V14.01,2013-01-06 00:48:00,
2013-01-05 19:53:00,40.5,22.3,30.24,SSE,158,0.0,0.0,48,0.00,,-RA,0.00,VWS V14.01,2013-01-06 00:53:00,
2013-01-05 19:58:00,40.3,23.6,30.24,SSE,158,0.0,0.0,51,0.00,,-RA,0.00,VWS V14.01,2013-01-06 00:58:00,
2013-01-05 20:03:00,39.9,24.2,30.21,SSE,158,0.0,0.0,53,0.00,,-RA,0.00,VWS V14.01,2013-01-06 01:03:00,
2013-01-05 20:08:00,39.7,24.0,30.21,SSE,158,0.0,0.0,53,0.00,,-RA,0.00,VWS V14.01,2013-01-06 01:08:00,
2013-01-05 20:13:00,39.6,24.7,30.21,SSE,158,0.0,0.0,55,0.00,,-RA,0.00,VWS V14.01,2013-01-06 01:13:00,
2013-01-05 20:19:00,38.8,27.0,30.21,SSE,158,0.0,0.0,62,0.00,,-RA,0.00,VWS V14.01,2013-01-06 01:19:00,
2013-01-05 20:24:00,38.7,28.3,30.21,SSE,158,0.0,0.0,66,0.00,,BKN120,0.00,VWS V14.01,2013-01-06 01:24:00,
2013-01-05 20:29:00,38.7,29.7,30.21,SSE,158,0.0,0.0,70,0.00,,BKN120,0.00,VWS V14.01,2013-01-06 01:29:00,
2013-01-05 20:34:00,38.5,30.2,30.21,SSE,158,0.0,0.0,72,0.00,,BKN120,0.00,VWS V14.01,2013-01-06 01:34:00,
2013-01-05 20:39:00,38.7,30.8,30.21,SSE,158,0.0,0.0,73,0.00,,BKN120,0.00,VWS V14.01,2013-01-06 01:39:00,
2013-01-05 20:44:00,38.5,30.9,30.21,SSE,158,0.0,0.0,74,0.00,,OVC090,0.00,VWS V14.01,2013-01-06 01:44:00,
2013-01-05 20:49:00,38.7,32.1,30.21,SSE,158,0.0,0.0,77,0.00,,OVC090,0.00,VWS V14.01,2013-01-06 01:49:00,
2013-01-05 20:54:00,38.7,32.4,30.21,SSE,158,0.0,0.0,78,0.00,,OVC090,0.00,VWS V14.01,2013-01-06 01:54:00,
2013-01-05 20:59:00,38.8,33.5,30.21,SSE,158,0.0,0.0,81,0.00,,OVC090,0.00,VWS V14.01,2013-01-06 01:59:00,
2013-01-05 21:04:00,38.7,34.0,30.21,SSE,158,0.0,0.0,83,0.00,,OVC090,0.00,VWS V14.01,2013-01-06 02:04:00,
2013-01-05 21:09:00,38.7,34.0,30.21,SSE,158,0.0,0.0,83,0.00,,OVC090,0.00,VWS V14.01,2013-01-06 02:09:00,
2013-01-05 21:14:00,38.5,33.8,30.21,SSE,158,0.0,0.0,83,0.00,,OVC090,0.00,VWS V14.01,2013-01-06 02:14:00,
2013-01-05 21:19:00,38.5,33.5,30.21,SSE,158,0.0,0.0,82,0.00,,OVC090,0.00,VWS V14.01,2013-01-06 02:19:00,
2013-01-05 21:24:00,38.7,33.7,30.21,SSE,158,0.0,0.0,82,0.00,,OVC090,0.00,VWS V14.01,2013-01-06 02:24:00,
2013-01-05 21:29:00,38.7,33.7,30.21,SSE,158,0.0,0.0,82,0.00,,OVC090,0.00,VWS V14.01,2013-01-06 02:29:00,
2013-01-05 21:34:00,38.7,33.7,30.21,SSE,158,0.0,0.0,82,0.00,,OVC090,0.00,VWS V14.01,2013-01-06 02:34:00,
2013-01-05 21:39:00,38.7,34.0,30.21,SSE,158,0.0,0.0,83,0.00,,OVC090,0.00,VWS V14.01,2013-01-06 02:39:00,
2013-01-05 21:44:00,38.8,34.4,30.21,SSE,158,0.0,0.0,84,0.00,,OVC120,0.00,VWS V14.01,2013-01-06 02:44:00,
2013-01-05 21:49:00,38.7,34.0,30.24,SSE,158,0.0,0.0,83,0.00,,OVC120,0.00,VWS V14.01,2013-01-06 02:49:00,
2013-01-05 21:54:00,38.7,34.2,30.24,SSE,158,0.0,0.0,84,0.00,,OVC120,0.00,VWS V14.01,2013-01-06 02:54:00,
2013-01-05 21:59:00,38.7,34.2,30.24,SSE,158,0.0,0.0,84,0.00,,OVC120,0.00,VWS V14.01,2013-01-06 02:59:00,
2013-01-05 22:04:00,38.8,33.8,30.24,SSE,158,0.0,0.0,82,0.00,,OVC090,0.00,VWS V14.01,2013-01-06 03:04:00,
2013-01-05 22:09:00,38.8,33.8,30.24,SSE,158,0.0,0.0,82,0.00,,OVC090,0.00,VWS V14.01,2013-01-06 03:09:00,
2013-01-05 22:14:00,38.8,34.1,30.24,SSE,158,0.0,0.0,83,0.00,,OVC090,0.00,VWS V14.01,2013-01-06 03:14:00,
2013-01-05 22:19:00,38.8,34.1,30.21,SSE,158,0.0,0.0,83,0.00,,OVC090,0.00,VWS V14.01,2013-01-06 03:19:00,
2013-01-05 22:24:00,38.8,34.4,30.21,SSE,158,0.0,0.0,84,0.00,,OVC060,0.00,VWS V14.01,2013-01-06 03:24:00,
2013-01-05 22:29:00,39.0,34.9,30.21,SSE,158,0.0,0.0,85,0.00,,OVC060,0.00,VWS V14.01,2013-01-06 03:29:00,
2013-01-05 22:34:00,38.8,34.7,30.21,SSE,158,0.0,0.0,85,0.00,,OVC060,0.00,VWS V14.01,2013-01-06 03:34:00,
2013-01-05 22:39:00,38.8,34.7,30.21,SSE,158,0.0,0.0,85,0.00,,OVC060,0.00,VWS V14.01,2013-01-06 03:39:00,
2013-01-05 22:44:00,39.0,34.9,30.21,SSE,158,0.0,0.0,85,0.00,,BKN110,0.00,VWS V14.01,2013-01-06 03:44:00,
2013-01-05 22:49:00,39.0,35.5,30.18,SSE,158,0.0,0.0,87,0.00,,BKN110,0.00,VWS V14.01,2013-01-06 03:49:00,
2013-01-05 22:54:00,38.8,35.6,30.18,SSE,158,0.0,0.0,88,0.00,,BKN110,0.00,VWS V14.01,2013-01-06 03:54:00,
2013-01-05 22:59:00,38.8,34.7,30.18,SSE,158,0.0,0.0,85,0.00,,BKN110,0.00,VWS V14.01,2013-01-06 03:59:00,
2013-01-05 23:04:00,38.8,35.0,30.18,SSE,158,0.0,0.0,86,0.00,,BKN110,0.00,VWS V14.01,2013-01-06 04:04:00,
2013-01-05 23:09:00,38.8,35.0,30.18,SSE,158,0.0,0.0,86,0.00,,BKN110,0.00,VWS V14.01,2013-01-06 04:09:00,
2013-01-05 23:14:00,38.8,35.3,30.18,SSE,158,0.0,0.0,87,0.00,,BKN110,0.00,VWS V14.01,2013-01-06 04:14:00,
2013-01-05 23:19:00,38.7,35.1,30.18,SSE,158,0.0,0.0,87,0.00,,BKN110,0.00,VWS V14.01,2013-01-06 04:19:00,
2013-01-05 23:25:00,38.7,34.8,30.18,SSE,158,0.0,0.0,86,0.00,,BKN120,0.00,VWS V14.01,2013-01-06 04:25:00,
2013-01-05 23:30:00,38.5,34.7,30.18,SSE,158,0.0,0.0,86,0.00,,BKN120,0.00,VWS V14.01,2013-01-06 04:30:00,
2013-01-05 23:35:00,38.5,35.0,30.18,SSE,158,0.0,0.0,87,0.00,,BKN120,0.00,VWS V14.01,2013-01-06 04:35:00,
2013-01-05 23:40:00,38.5,35.0,30.18,SSE,158,0.0,0.0,87,0.00,,BKN120,0.00,VWS V14.01,2013-01-06 04:40:00,
2013-01-05 23:45:00,38.5,35.0,30.18,SSE,158,0.0,0.0,87,0.00,,-RA,0.00,VWS V14.01,2013-01-06 04:45:00,
2013-01-05 23:50:00,38.5,35.2,30.18,SSE,158,0.0,0.0,88,0.00,,-RA,0.00,VWS V14.01,2013-01-06 04:50:00,
2013-01-05 23:55:00,38.5,35.5,30.18,SSE,158,0.0,0.0,89,0.00,,-RA,0.00,VWS V14.01,2013-01-06 04:55:00,